Terminal Aerodrome Forecast
Issued by NWS Charleston, SC

Current Version | Previous Version | Text Only | Print | Product List | Glossary Off
Versions: 1 2 3 4 5 6 7 8 9 10 11 12 13 14 15 16 17 18 19 20 21 22 23 24 25 26

000
FTUS42 KCHS 162300
TAFCHS
TAF
KCHS 162320Z 1700/1724 11010KT P6SM SKC
     FM170200 05006KT P6SM SKC
     FM170900 04009KT P6SM SCT025
     FM171500 06010KT P6SM SCT050=

USA.gov is the U.S. government's official web portal to all federal, state and local government web resources and services.